Time;durP1;ratioP1;P1;durP2;ratioP2;P2;SDS_P1;SDS_P2;PMS_P1;PMS_P2;Temp;Humidity;BMP_temperature;BMP_pressure;BME280_temperature;BME280_humidity;BME280_pressure;Samples;Min_cycle;Max_cycle;Signal;HPM_P1;HPM_P2
2021/08/09 00:01:26;;;;;;;3.42;1.70;;;;;;;15.84;79.81;96580.41;5067725;28;20053;-74
2021/08/09 00:03:53;;;;;;;5.38;1.75;;;;;;;15.80;79.89;96587.75;5070936;28;20069;-74
2021/08/09 00:06:23;;;;;;;3.65;1.80;;;;;;;15.78;80.20;96578.25;5071790;28;20052;-74
2021/08/09 00:08:50;;;;;;;6.38;1.90;;;;;;;15.75;80.61;96581.69;5067293;28;20506;-74
2021/08/09 00:11:17;;;;;;;2.60;1.40;;;;;;;15.76;80.74;96575.84;5072030;28;20048;-74
2021/08/09 00:13:44;;;;;;;4.13;1.70;;;;;;;15.77;80.42;96563.72;5072436;28;20517;-74
2021/08/09 00:16:11;;;;;;;3.80;1.73;;;;;;;15.76;80.51;96556.63;5072123;28;20051;-74
2021/08/09 00:18:39;;;;;;;2.67;1.77;;;;;;;15.74;80.34;96563.63;5072239;28;20040;-74
2021/08/09 00:21:06;;;;;;;3.65;1.60;;;;;;;15.67;79.94;96564.22;5071379;28;20490;-74
2021/08/09 00:23:32;;;;;;;5.93;2.10;;;;;;;15.61;79.97;96560.06;5071530;28;20048;-74
2021/08/09 00:25:59;;;;;;;3.22;1.85;;;;;;;15.57;80.18;96564.66;5071992;28;20045;-74
2021/08/09 00:28:26;;;;;;;2.20;1.70;;;;;;;15.52;80.26;96565.69;5071663;28;20045;-74
2021/08/09 00:30:53;;;;;;;4.85;1.60;;;;;;;15.49;80.36;96568.31;5071411;28;20044;-74
2021/08/09 00:33:19;;;;;;;3.50;1.60;;;;;;;15.49;80.57;96573.78;5071584;28;20055;-74
2021/08/09 00:35:46;;;;;;;4.32;1.90;;;;;;;15.46;80.60;96569.81;5072113;28;20052;-74
2021/08/09 00:38:12;;;;;;;5.05;1.80;;;;;;;15.45;80.93;96570.94;5070813;28;20048;-75
2021/08/09 00:40:39;;;;;;;3.40;1.73;;;;;;;15.45;80.87;96561.91;5071661;28;20041;-74
2021/08/09 00:43:06;;;;;;;5.07;1.70;;;;;;;15.44;81.07;96571.28;5071386;28;20051;-73
2021/08/09 00:45:34;;;;;;;3.08;1.90;;;;;;;15.43;81.01;96569.69;5071103;28;20056;-74
2021/08/09 00:48:01;;;;;;;3.97;2.22;;;;;;;15.46;80.67;96563.53;5071654;28;20503;-74
2021/08/09 00:50:27;;;;;;;4.97;2.00;;;;;;;15.45;80.37;96561.91;5071672;28;20063;-74
2021/08/09 00:52:54;;;;;;;3.08;1.70;;;;;;;15.41;80.67;96567.28;5071520;28;20068;-74
2021/08/09 00:55:20;;;;;;;4.32;1.85;;;;;;;15.40;80.73;96577.47;5071279;28;20041;-74
2021/08/09 00:57:47;;;;;;;4.25;2.10;;;;;;;15.34;80.67;96573.34;5071639;28;20045;-74
2021/08/09 01:00:13;;;;;;;5.65;2.00;;;;;;;15.31;80.73;96571.28;5071103;28;20041;-74
2021/08/09 01:02:42;;;;;;;3.33;2.17;;;;;;;15.29;81.13;96579.03;5071156;28;20415;-74
2021/08/09 01:05:10;;;;;;;3.45;1.77;;;;;;;15.32;81.13;96570.16;5070862;28;20086;-74
2021/08/09 01:07:48;;;;;;;4.45;1.98;;;;;;;15.31;81.41;96567.75;5070762;28;20044;-75
2021/08/09 01:10:19;;;;;;;4.68;1.90;;;;;;;15.33;81.26;96562.72;5070959;28;20487;-74
2021/08/09 01:12:52;;;;;;;8.63;2.20;;;;;;;15.29;81.35;96570.81;5071417;28;20045;-74
2021/08/09 01:15:24;;;;;;;6.37;2.20;;;;;;;15.28;81.58;96569.22;5070947;28;20054;-75
2021/08/09 01:17:56;;;;;;;3.40;1.55;;;;;;;15.25;81.63;96567.19;5071322;28;20040;-73
2021/08/09 01:20:36;;;;;;;5.00;2.10;;;;;;;15.24;81.76;96562.03;5070200;28;20040;-74
2021/08/09 01:23:15;;;;;;;4.82;2.10;;;;;;;15.23;81.75;96572.19;5070701;28;20040;-73
2021/08/09 01:25:50;;;;;;;3.17;1.90;;;;;;;15.25;81.68;96571.88;5071346;28;20056;-74
2021/08/09 01:28:20;;;;;;;3.83;1.85;;;;;;;15.27;81.70;96564.88;5070538;28;20137;-73
2021/08/09 01:30:49;;;;;;;3.33;1.98;;;;;;;15.28;81.52;96566.47;5053468;28;20503;-74
2021/08/09 01:33:17;;;;;;;3.88;1.73;;;;;;;15.26;81.21;96560.53;5070537;28;20525;-73
2021/08/09 01:35:45;;;;;;;4.78;1.90;;;;;;;15.25;81.01;96558.16;5070556;28;20406;-74
2021/08/09 01:38:14;;;;;;;3.88;1.75;;;;;;;15.24;80.70;96557.31;5069846;28;20513;-74
2021/08/09 01:40:42;;;;;;;3.42;1.80;;;;;;;15.26;79.70;96546.84;5070935;28;20052;-74
2021/08/09 01:43:09;;;;;;;2.35;1.48;;;;;;;15.27;79.49;96544.88;5070323;28;20052;-74
2021/08/09 01:45:38;;;;;;;5.82;1.80;;;;;;;15.23;79.53;96550.25;5070963;28;20049;-74
2021/08/09 01:48:05;;;;;;;3.95;1.98;;;;;;;15.19;79.68;96560.31;5070349;28;20056;-74
2021/08/09 01:50:32;;;;;;;2.60;1.73;;;;;;;15.15;79.57;96564.88;5070920;28;20059;-74
2021/08/09 01:52:59;;;;;;;3.20;1.80;;;;;;;15.10;80.02;96567.84;5070820;28;20048;-74
2021/08/09 01:55:26;;;;;;;4.10;2.20;;;;;;;15.08;80.47;96564.63;5070405;28;20052;-74
2021/08/09 01:57:52;;;;;;;5.03;2.00;;;;;;;15.08;80.69;96561.91;5070868;28;20083;-75
2021/08/09 02:00:19;;;;;;;2.25;1.85;;;;;;;15.07;80.88;96563.03;5070322;28;20047;-74
2021/08/09 02:02:48;;;;;;;3.20;1.88;;;;;;;15.05;80.94;96562.59;5070489;28;20048;-74
2021/08/09 02:05:17;;;;;;;5.13;2.00;;;;;;;15.02;80.88;96564.06;5070012;28;20091;-74
2021/08/09 02:07:46;;;;;;;3.92;2.10;;;;;;;15.01;80.91;96565.22;5070185;28;20044;-74
2021/08/09 02:10:16;;;;;;;3.10;1.60;;;;;;;15.05;80.31;96559.84;5070205;28;20040;-74
2021/08/09 02:12:47;;;;;;;6.30;1.88;;;;;;;15.07;80.01;96557.56;5070734;28;20055;-74
2021/08/09 02:15:18;;;;;;;3.10;1.80;;;;;;;15.07;79.64;96560.31;5070237;28;20045;-74
2021/08/09 02:17:52;;;;;;;4.70;2.08;;;;;;;15.04;80.33;96553.56;5070758;28;20045;-74
2021/08/09 02:20:24;;;;;;;4.15;1.90;;;;;;;15.07;80.58;96554.81;5070148;28;20044;-74
2021/08/09 02:22:55;;;;;;;2.00;1.65;;;;;;;15.09;80.77;96549.81;5069982;28;20041;-74
2021/08/09 02:25:26;;;;;;;3.03;1.85;;;;;;;15.10;80.92;96551.41;5070206;28;20056;-74
2021/08/09 02:27:56;;;;;;;3.13;1.75;;;;;;;15.09;80.75;96558.03;5070395;28;20445;-75
2021/08/09 02:30:26;;;;;;;4.25;1.92;;;;;;;15.07;80.92;96558.34;5070018;28;20045;-74
2021/08/09 02:32:58;;;;;;;2.80;1.95;;;;;;;15.07;80.91;96552.06;5070522;28;20049;-74
2021/08/09 02:35:26;;;;;;;8.25;1.80;;;;;;;15.10;80.19;96545.91;5069983;28;20045;-74
2021/08/09 02:37:53;;;;;;;6.68;2.35;;;;;;;15.08;79.94;96548.19;5069855;28;20064;-74
2021/08/09 02:40:21;;;;;;;2.72;1.67;;;;;;;15.07;79.21;96541.91;5069993;28;20061;-74
2021/08/09 02:42:48;;;;;;;3.10;1.90;;;;;;;15.06;79.83;96545.00;5069771;28;20080;-73
2021/08/09 02:45:15;;;;;;;3.80;1.60;;;;;;;15.04;79.88;96541.81;5069890;28;20048;-75
2021/08/09 02:47:43;;;;;;;8.82;1.90;;;;;;;15.05;80.02;96546.16;5072753;28;20053;-75
2021/08/09 02:50:14;;;;;;;4.13;1.75;;;;;;;15.05;79.95;96554.38;5073708;28;20044;-76
2021/08/09 02:52:41;;;;;;;6.65;1.70;;;;;;;15.06;80.14;96545.00;5073976;28;20049;-76
2021/08/09 02:55:09;;;;;;;4.03;1.40;;;;;;;15.04;80.17;96550.03;5073617;28;20055;-75
2021/08/09 02:57:37;;;;;;;4.20;1.70;;;;;;;15.04;79.77;96555.53;5073613;28;20056;-76
2021/08/09 03:00:05;;;;;;;5.97;1.70;;;;;;;15.00;80.14;96543.63;5073728;28;20059;-73
2021/08/09 03:02:36;;;;;;;4.63;1.42;;;;;;;14.99;80.26;96542.03;5073791;28;20058;-75
2021/08/09 03:05:03;;;;;;;4.70;1.90;;;;;;;14.99;79.82;96534.59;5073311;28;20407;-74
2021/08/09 03:07:32;;;;;;;4.93;1.70;;;;;;;15.00;79.67;96541.69;5073218;28;20043;-76
2021/08/09 03:09:59;;;;;;;4.13;1.70;;;;;;;14.98;80.01;96537.66;5053478;28;20059;-76
2021/08/09 03:12:27;;;;;;;5.07;2.00;;;;;;;14.98;79.75;96543.16;5053276;28;20045;-75
2021/08/09 03:14:54;;;;;;;2.10;1.50;;;;;;;14.99;78.70;96544.78;5053935;28;20044;-75
2021/08/09 03:17:20;;;;;;;2.80;1.52;;;;;;;14.96;78.79;96538.00;5053177;28;20045;-75
2021/08/09 03:19:47;;;;;;;6.43;1.83;;;;;;;14.92;79.21;96544.53;5053814;28;20384;-75
2021/08/09 03:22:13;;;;;;;3.95;2.00;;;;;;;14.87;79.15;96549.06;5065103;28;20048;-75
2021/08/09 03:24:41;;;;;;;4.95;1.85;;;;;;;14.85;79.28;96545.09;5073264;28;20059;-76
2021/08/09 03:27:08;;;;;;;3.70;1.80;;;;;;;14.85;80.03;96545.88;5072992;28;20051;-75
2021/08/09 03:29:34;;;;;;;6.43;1.95;;;;;;;14.87;79.73;96545.53;5073444;28;20052;-75
2021/08/09 03:32:01;;;;;;;4.35;1.92;;;;;;;14.91;79.45;96551.16;5073314;28;20507;-76
2021/08/09 03:34:27;;;;;;;3.13;1.50;;;;;;;14.92;79.49;96552.75;5072892;28;20047;-75
2021/08/09 03:36:54;;;;;;;5.57;2.20;;;;;;;14.93;79.51;96557.91;5072740;28;20040;-75
2021/08/09 03:39:21;;;;;;;4.50;2.17;;;;;;;14.93;79.57;96555.16;5072087;28;20049;-76
2021/08/09 03:41:49;;;;;;;4.35;1.90;;;;;;;14.91;79.84;96557.44;5072705;28;20048;-76
2021/08/09 03:44:15;;;;;;;3.63;1.73;;;;;;;14.93;80.07;96568.06;5072553;28;20040;-75
2021/08/09 03:46:42;;;;;;;5.47;1.95;;;;;;;14.93;79.66;96568.88;5073011;28;20044;-76
2021/08/09 03:49:09;;;;;;;3.47;1.85;;;;;;;14.95;79.20;96565.78;5072531;28;20053;-75
2021/08/09 03:51:36;;;;;;;3.67;1.80;;;;;;;14.98;79.06;96570.56;5073033;28;20048;-75
2021/08/09 03:54:03;;;;;;;6.50;1.90;;;;;;;15.02;79.21;96577.78;5072373;28;20135;-74
2021/08/09 03:56:30;;;;;;;3.78;1.50;;;;;;;15.01;79.28;96584.41;5073032;28;20064;-75
2021/08/09 03:58:58;;;;;;;3.33;1.80;;;;;;;14.99;79.59;96589.44;5072318;28;20056;-76
2021/08/09 04:01:24;;;;;;;2.83;1.90;;;;;;;14.98;80.22;96582.38;5072181;28;20041;-75
2021/08/09 04:03:51;;;;;;;7.03;1.73;;;;;;;15.05;80.02;96576.31;5072231;28;20487;-75
2021/08/09 04:06:17;;;;;;;4.03;1.80;;;;;;;15.04;79.74;96575.50;5072302;28;20059;-75
2021/08/09 04:08:44;;;;;;;3.42;2.00;;;;;;;15.09;79.84;96582.72;5070400;28;20041;-75
2021/08/09 04:11:11;;;;;;;6.10;1.98;;;;;;;15.14;80.16;96577.00;5072080;28;20041;-75
2021/08/09 04:13:37;;;;;;;3.03;1.85;;;;;;;15.15;80.42;96567.63;5072704;28;20086;-75
2021/08/09 04:16:06;;;;;;;2.83;1.63;;;;;;;15.20;79.35;96572.91;5071929;28;20052;-75
2021/08/09 04:18:32;;;;;;;2.78;1.70;;;;;;;15.23;78.94;96571.41;5072468;28;20049;-76
2021/08/09 04:20:58;;;;;;;4.95;2.55;;;;;;;15.22;79.19;96569.81;5072429;28;20072;-76
2021/08/09 04:23:25;;;;;;;6.30;2.50;;;;;;;15.23;79.24;96566.72;5071653;28;20041;-76
2021/08/09 04:25:52;;;;;;;6.05;2.10;;;;;;;15.26;79.59;96560.53;5072231;28;20037;-75
2021/08/09 04:28:18;;;;;;;2.17;1.80;;;;;;;15.25;79.59;96566.38;5071899;28;20055;-75
2021/08/09 04:30:45;;;;;;;5.03;2.10;;;;;;;15.24;79.82;96560.06;5072096;28;20045;-76
2021/08/09 04:33:12;;;;;;;3.30;1.70;;;;;;;15.24;79.86;96557.31;5071732;28;20056;-76
2021/08/09 04:35:39;;;;;;;5.68;2.20;;;;;;;15.26;79.74;96555.06;5072085;28;20134;-76
2021/08/09 04:38:05;;;;;;;4.15;1.98;;;;;;;15.29;78.90;96559.03;5071718;28;20071;-75
2021/08/09 04:40:32;;;;;;;5.15;1.73;;;;;;;15.28;79.09;96558.25;5072141;28;20055;-76
2021/08/09 04:42:59;;;;;;;3.28;2.22;;;;;;;15.29;79.07;96565.34;5072164;28;20041;-76
2021/08/09 04:45:25;;;;;;;4.72;2.08;;;;;;;15.27;79.50;96578.59;5071260;28;20055;-76
2021/08/09 04:47:52;;;;;;;5.15;2.28;;;;;;;15.24;79.73;96582.03;5071815;28;20511;-76
2021/08/09 04:50:20;;;;;;;4.60;2.10;;;;;;;15.21;80.17;96585.47;5071506;28;20048;-75
2021/08/09 04:52:46;;;;;;;6.43;1.90;;;;;;;15.21;79.94;96584.66;5071624;28;20049;-76
2021/08/09 04:55:13;;;;;;;3.03;1.50;;;;;;;15.21;79.84;96590.94;5071275;28;20048;-75
2021/08/09 04:57:40;;;;;;;2.88;1.80;;;;;;;15.21;79.48;96590.94;5071885;28;20087;-76
2021/08/09 05:00:08;;;;;;;5.68;1.70;;;;;;;15.20;79.44;96594.03;5071203;28;20419;-75
2021/08/09 05:02:36;;;;;;;2.58;1.60;;;;;;;15.14;79.44;96597.00;5071648;28;20056;-76
2021/08/09 05:05:02;;;;;;;5.47;1.90;;;;;;;15.08;79.76;96598.34;5070679;28;20044;-75
2021/08/09 05:07:30;;;;;;;5.13;2.30;;;;;;;15.08;80.42;96586.59;5071570;28;20044;-75
2021/08/09 05:09:57;;;;;;;4.22;2.42;;;;;;;15.09;80.84;96579.97;5070911;28;20044;-76
2021/08/09 05:12:23;;;;;;;5.65;2.00;;;;;;;15.08;81.28;96581.09;5070923;28;20044;-75
2021/08/09 05:14:49;;;;;;;3.70;2.00;;;;;;;15.09;81.43;96585.47;5071350;28;20057;-74
2021/08/09 05:17:16;;;;;;;6.85;2.40;;;;;;;15.11;81.59;96586.72;5070961;28;20049;-74
2021/08/09 05:19:42;;;;;;;2.63;2.00;;;;;;;15.16;81.85;96582.94;5071516;28;20048;-74
2021/08/09 05:22:09;;;;;;;3.70;1.83;;;;;;;15.21;81.98;96588.22;5070567;28;20045;-74
2021/08/09 05:24:37;;;;;;;5.22;1.92;;;;;;;15.25;81.93;96588.34;5070721;28;20048;-74
2021/08/09 05:27:04;;;;;;;5.78;1.88;;;;;;;15.31;81.36;96598.72;5070683;28;20048;-73
2021/08/09 05:29:30;;;;;;;4.30;1.88;;;;;;;15.36;80.75;96601.25;5071141;28;20049;-74
2021/08/09 05:31:58;;;;;;;4.55;2.00;;;;;;;15.43;78.77;96608.09;5071213;28;20415;-74
2021/08/09 05:34:25;;;;;;;4.80;1.90;;;;;;;15.46;79.25;96604.69;5070732;28;20055;-74
2021/08/09 05:36:51;;;;;;;10.55;2.05;;;;;;;15.49;79.46;96607.53;5070608;28;20051;-74
2021/08/09 05:39:18;;;;;;;2.78;1.67;;;;;;;15.52;78.89;96603.31;5070119;28;20510;-74
2021/08/09 05:41:45;;;;;;;3.65;1.80;;;;;;;15.57;78.71;96608.56;5071137;28;20063;-74
2021/08/09 05:44:12;;;;;;;4.85;1.80;;;;;;;15.59;78.66;96611.75;5070739;28;20064;-74
2021/08/09 05:46:38;;;;;;;3.35;2.10;;;;;;;15.66;78.45;96609.28;5071170;28;20044;-74
2021/08/09 05:49:05;;;;;;;9.90;6.00;;;;;;;15.68;77.99;96609.72;5070206;28;20044;-74
2021/08/09 05:51:35;;;;;;;7.78;3.28;;;;;;;15.76;78.46;96608.78;5071096;28;20057;-74
2021/08/09 05:54:01;;;;;;;2.47;1.70;;;;;;;15.81;78.12;96603.06;5070811;28;20044;-75
2021/08/09 05:56:28;;;;;;;6.68;1.70;;;;;;;15.89;76.36;96609.59;5070787;28;20613;-73
2021/08/09 05:58:55;;;;;;;6.47;1.55;;;;;;;15.96;77.02;96614.50;5070771;28;20048;-75
2021/08/09 06:01:22;;;;;;;2.28;1.60;;;;;;;16.08;76.75;96606.25;5070350;28;20059;-74
2021/08/09 06:03:48;;;;;;;3.08;1.60;;;;;;;16.12;76.51;96612.63;5070406;28;20056;-74
2021/08/09 06:06:19;;;;;;;5.70;1.70;;;;;;;16.11;76.59;96617.31;5070371;28;20052;-74
2021/08/09 06:08:45;;;;;;;3.05;1.60;;;;;;;16.16;77.01;96606.09;5070554;28;20044;-74
2021/08/09 06:11:12;;;;;;;7.13;1.73;;;;;;;16.22;77.57;96617.63;5070183;28;20407;-73
2021/08/09 06:13:38;;;;;;;7.05;1.65;;;;;;;16.26;77.20;96613.03;5070937;28;20062;-74
2021/08/09 06:16:06;;;;;;;3.90;2.00;;;;;;;16.28;77.22;96609.94;5070322;28;20045;-73
2021/08/09 06:18:33;;;;;;;4.50;1.45;;;;;;;16.25;76.86;96605.94;5070872;28;20044;-74
2021/08/09 06:21:00;;;;;;;2.45;1.60;;;;;;;16.29;77.57;96606.06;5071996;28;20530;-74
2021/08/09 06:23:26;;;;;;;4.20;1.60;;;;;;;16.34;78.16;96606.63;5074298;28;20514;-74
2021/08/09 06:25:54;;;;;;;6.45;1.73;;;;;;;16.44;77.55;96600.63;5074243;28;20051;-74
2021/08/09 06:28:20;;;;;;;3.47;1.70;;;;;;;16.56;77.18;96605.25;5074164;28;20414;-74
2021/08/09 06:30:47;;;;;;;3.10;1.50;;;;;;;16.66;77.91;96604.75;5074655;28;20048;-75
2021/08/09 06:33:15;;;;;;;4.65;1.77;;;;;;;16.74;75.10;96594.78;5074097;28;20067;-73
2021/08/09 06:35:42;;;;;;;4.47;1.40;;;;;;;16.77;75.46;96594.09;5074320;28;20079;-73
2021/08/09 06:38:09;;;;;;;3.95;1.60;;;;;;;16.80;75.85;96593.34;5073985;28;20040;-73
2021/08/09 06:40:40;;;;;;;2.90;1.40;;;;;;;16.85;76.45;96601.34;5073357;28;20044;-73
2021/08/09 06:43:08;;;;;;;3.70;1.30;;;;;;;16.88;76.58;96600.66;5073255;28;20048;-72
2021/08/09 06:45:34;;;;;;;2.67;1.50;;;;;;;16.89;76.04;96602.25;5073953;28;20044;-72
2021/08/09 06:48:01;;;;;;;3.40;1.42;;;;;;;17.01;76.68;96603.31;5074272;28;20491;-72
2021/08/09 06:50:28;;;;;;;2.30;1.30;;;;;;;17.06;73.56;96600.31;5073746;28;20411;-72
2021/08/09 06:52:55;;;;;;;4.43;1.58;;;;;;;17.05;73.54;96609.72;5074228;28;20092;-72
2021/08/09 06:55:21;;;;;;;3.65;1.70;;;;;;;17.09;73.80;96607.88;5073656;28;20491;-72
2021/08/09 06:57:48;;;;;;;3.60;1.55;;;;;;;17.19;74.56;96610.91;5074273;28;20060;-72
2021/08/09 07:00:15;;;;;;;4.32;1.50;;;;;;;17.29;73.97;96614.28;5073367;28;20047;-72
2021/08/09 07:02:41;;;;;;;3.35;1.70;;;;;;;17.36;73.76;96612.50;5074030;28;20139;-72
2021/08/09 07:05:09;;;;;;;4.47;1.70;;;;;;;17.43;73.14;96598.88;5073118;28;20533;-72
2021/08/09 07:07:38;;;;;;;3.25;1.60;;;;;;;17.52;72.98;96603.44;5073815;28;20052;-74
2021/08/09 07:10:06;;;;;;;4.07;1.70;;;;;;;17.55;73.34;96605.47;5072447;28;20131;-73
2021/08/09 07:12:33;;;;;;;3.33;1.70;;;;;;;17.63;72.94;96593.47;5070208;28;20072;-72
2021/08/09 07:14:59;;;;;;;2.72;1.50;;;;;;;17.75;72.31;96587.91;5072607;28;20502;-72
2021/08/09 07:17:25;;;;;;;4.38;1.63;;;;;;;17.79;68.78;96583.25;5072663;28;20044;-72
2021/08/09 07:19:52;;;;;;;3.80;1.33;;;;;;;17.80;68.61;96595.06;5072860;28;20048;-72
2021/08/09 07:22:19;;;;;;;3.53;1.38;;;;;;;17.92;70.83;96593.00;5072448;28;20044;-72
2021/08/09 07:24:46;;;;;;;2.53;1.50;;;;;;;18.05;70.16;96596.41;5073423;28;20048;-73
2021/08/09 07:27:13;;;;;;;5.10;1.30;;;;;;;18.13;69.28;96591.88;5072906;28;20044;-72
2021/08/09 07:29:39;;;;;;;3.05;1.40;;;;;;;18.22;67.03;96596.00;5072225;28;20059;-72
2021/08/09 07:32:07;;;;;;;3.83;1.33;;;;;;;18.29;65.66;96598.13;5072104;28;20135;-72
2021/08/09 07:34:33;;;;;;;3.50;1.50;;;;;;;18.33;67.01;96601.75;5073049;28;20053;-72
2021/08/09 07:37:00;;;;;;;3.22;1.45;;;;;;;18.38;68.13;96598.72;5072610;28;20055;-73
2021/08/09 07:39:27;;;;;;;2.17;1.25;;;;;;;18.49;68.70;96616.25;5071104;28;20040;-73
2021/08/09 07:41:55;;;;;;;4.32;1.67;;;;;;;18.61;69.37;96615.31;5073166;28;20049;-73
2021/08/09 07:44:22;;;;;;;4.55;1.35;;;;;;;18.80;68.10;96614.53;5072470;28;20051;-73
2021/08/09 07:46:48;;;;;;;4.05;1.20;;;;;;;18.96;67.71;96608.91;5072796;28;20521;-72
2021/08/09 07:49:15;;;;;;;2.88;1.17;;;;;;;19.20;68.17;96610.50;5072506;28;20045;-72
2021/08/09 07:51:41;;;;;;;6.43;1.42;;;;;;;19.38;66.62;96608.88;5072663;28;20056;-71
2021/08/09 07:54:07;;;;;;;6.88;1.63;;;;;;;19.63;68.93;96605.72;5072403;28;20040;-71
2021/08/09 07:56:34;;;;;;;3.28;1.38;;;;;;;20.01;67.79;96605.53;5072800;28;20053;-72
2021/08/09 07:59:02;;;;;;;4.18;1.67;;;;;;;20.89;65.36;96597.97;5072602;28;20055;-71
2021/08/09 08:01:28;;;;;;;4.30;1.40;;;;;;;21.96;60.05;96602.47;5071804;28;20045;-70
2021/08/09 08:03:55;;;;;;;3.33;1.00;;;;;;;22.90;54.98;96607.34;5071791;28;20063;-71
2021/08/09 08:06:21;;;;;;;2.33;1.00;;;;;;;23.51;51.44;96613.81;5070405;28;20040;-72
2021/08/09 08:08:48;;;;;;;1.88;0.93;;;;;;;24.17;46.99;96613.38;5071063;28;20056;-71
2021/08/09 08:11:14;;;;;;;1.73;0.98;;;;;;;24.89;45.93;96605.59;5071678;28;20059;-71
2021/08/09 08:13:40;;;;;;;6.70;3.85;;;;;;;25.59;45.16;96598.03;5071975;28;20041;-71
2021/08/09 08:16:09;;;;;;;2.88;1.25;;;;;;;25.94;41.07;96599.72;5071252;28;20048;-71
2021/08/09 08:18:36;;;;;;;1.85;1.20;;;;;;;26.37;46.19;96593.72;5071554;28;20044;-71
2021/08/09 08:21:02;;;;;;;3.10;1.02;;;;;;;26.87;39.79;96589.53;5071806;28;20056;-72
2021/08/09 08:23:29;;;;;;;3.25;0.90;;;;;;;27.30;41.06;96590.56;5071972;28;20495;-72
2021/08/09 08:25:55;;;;;;;2.28;0.85;;;;;;;27.62;38.34;96589.28;5053924;28;20064;-72
2021/08/09 08:28:22;;;;;;;4.95;1.30;;;;;;;27.75;40.05;96587.47;5071697;28;20056;-71
2021/08/09 08:30:49;;;;;;;2.03;1.00;;;;;;;28.11;39.73;96592.44;5071573;28;20048;-72
2021/08/09 08:33:17;;;;;;;2.70;0.95;;;;;;;28.22;34.84;96595.84;5071444;28;20051;-72
2021/08/09 08:35:44;;;;;;;2.28;1.00;;;;;;;28.04;37.36;96592.59;5072058;28;20055;-72
2021/08/09 08:38:10;;;;;;;1.73;0.90;;;;;;;27.87;36.94;96596.47;5071527;28;20060;-72
2021/08/09 08:40:45;;;;;;;3.70;0.95;;;;;;;27.73;37.09;96595.50;5069721;28;20055;-72
2021/08/09 08:43:19;;;;;;;2.08;0.88;;;;;;;27.94;40.09;96599.97;5071362;28;20064;-73
2021/08/09 08:45:46;;;;;;;3.42;1.00;;;;;;;28.30;37.30;96600.09;5069918;28;20433;-72
2021/08/09 08:48:12;;;;;;;2.60;0.98;;;;;;;28.62;36.06;96598.72;5070050;28;20048;-72
2021/08/09 08:50:40;;;;;;;3.35;0.90;;;;;;;29.11;40.62;96594.09;5071463;28;20051;-73
2021/08/09 08:53:07;;;;;;;3.47;0.90;;;;;;;29.35;36.89;96594.75;5070783;28;20048;-72
2021/08/09 08:55:33;;;;;;;2.50;1.00;;;;;;;29.29;37.38;96602.13;5070926;28;20059;-73
2021/08/09 08:58:00;;;;;;;3.30;0.88;;;;;;;29.01;36.88;96602.72;5071431;28;20055;-72
2021/08/09 09:00:27;;;;;;;2.75;0.90;;;;;;;28.72;39.42;96600.50;5070506;28;20044;-72
2021/08/09 09:02:53;;;;;;;2.20;1.00;;;;;;;28.38;37.95;96592.38;5071620;28;20049;-71
2021/08/09 09:05:23;;;;;;;2.50;0.80;;;;;;;28.10;39.06;96602.06;5070778;28;20045;-72
2021/08/09 09:07:55;;;;;;;4.13;0.98;;;;;;;28.07;40.70;96603.69;5070997;28;20059;-72
2021/08/09 09:10:24;;;;;;;3.80;1.25;;;;;;;28.14;35.97;96602.81;5070456;28;20070;-72
2021/08/09 09:13:18;;;;;;;3.28;1.95;;;;;;;27.89;35.48;96602.47;5069344;28;20045;-72
2021/08/09 09:16:04;;;;;;;7.00;1.50;;;;;;;28.01;38.88;96599.03;5070337;28;20123;-73
2021/08/09 09:18:53;;;;;;;5.05;0.98;;;;;;;28.41;36.62;96599.94;5070705;28;20040;-72
2021/08/09 09:21:28;;;;;;;3.17;1.20;;;;;;;28.51;35.05;96598.16;5070335;28;20049;-72
2021/08/09 09:24:06;;;;;;;4.15;0.95;;;;;;;28.61;37.20;96597.16;5070671;28;20072;-73
2021/08/09 09:26:33;;;;;;;3.35;1.00;;;;;;;28.52;35.08;96608.13;5070525;28;20495;-71
2021/08/09 09:29:07;;;;;;;2.83;1.20;;;;;;;28.49;34.75;96606.16;5070866;28;20498;-71
2021/08/09 09:31:33;;;;;;;3.28;1.13;;;;;;;28.37;38.95;96599.19;5069338;28;20048;-72
2021/08/09 09:34:03;;;;;;;3.17;1.00;;;;;;;28.08;33.50;96604.50;5071050;28;20051;-71
2021/08/09 09:36:30;;;;;;;2.13;1.00;;;;;;;27.67;35.91;96597.19;5070457;28;20111;-71
2021/08/09 09:38:58;;;;;;;2.92;1.00;;;;;;;27.98;37.44;96602.66;5070912;28;20040;-73
2021/08/09 09:41:24;;;;;;;4.05;1.02;;;;;;;27.69;38.79;96599.56;5069861;28;20051;-73
2021/08/09 09:43:51;;;;;;;2.08;1.00;;;;;;;27.49;40.30;96602.25;5070756;28;20051;-73
2021/08/09 09:46:26;;;;;;;14.48;12.50;;;;;;;27.36;41.60;96604.06;5070142;28;20411;-72
2021/08/09 09:49:00;;;;;;;2.90;0.95;;;;;;;26.95;41.54;96602.22;5070934;28;20549;-72
2021/08/09 09:51:27;;;;;;;3.45;1.10;;;;;;;26.82;42.21;96604.75;5069921;28;20117;-72
2021/08/09 09:53:54;;;;;;;4.80;1.35;;;;;;;26.62;43.28;96595.44;5052106;28;20710;-72
2021/08/09 09:56:22;;;;;;;7.20;1.80;;;;;;;26.23;41.16;96597.44;5069966;28;20131;-74
2021/08/09 09:58:48;;;;;;;6.35;2.00;;;;;;;25.83;44.01;96596.22;5070677;28;20131;-73
2021/08/09 10:01:15;;;;;;;3.25;1.02;;;;;;;25.54;39.51;96592.88;5070154;28;20052;-73
2021/08/09 10:03:42;;;;;;;2.97;1.25;;;;;;;25.35;44.43;96593.41;5070050;28;20048;-72
2021/08/09 10:06:11;;;;;;;1.77;0.95;;;;;;;25.29;43.94;96589.47;5070196;28;20052;-74
2021/08/09 10:08:42;;;;;;;2.15;1.00;;;;;;;25.36;46.21;96590.22;5070366;28;20052;-73
2021/08/09 10:11:09;;;;;;;2.03;0.93;;;;;;;25.33;42.80;96593.03;5070181;28;20048;-73
2021/08/09 10:13:38;;;;;;;3.28;0.95;;;;;;;25.24;43.48;96593.50;5070539;28;20403;-73
2021/08/09 10:16:07;;;;;;;3.20;1.17;;;;;;;25.16;46.73;96586.34;5068618;28;20044;-73
2021/08/09 10:18:35;;;;;;;3.22;0.98;;;;;;;25.14;41.28;96577.63;5068901;28;20540;-73
2021/08/09 10:21:03;;;;;;;5.97;1.60;;;;;;;25.21;46.44;96583.16;5068877;28;20056;-73
2021/08/09 10:23:38;;;;;;;1.83;1.05;;;;;;;25.32;46.38;96585.84;5070162;28;20043;-73
2021/08/09 10:26:05;;;;;;;2.45;0.77;;;;;;;25.34;44.78;96572.31;5069885;28;20049;-73
2021/08/09 10:29:09;;;;;;;2.67;1.00;;;;;;;25.47;45.75;96578.97;5070233;28;20053;-73
2021/08/09 10:31:38;;;;;;;;;;;;;;;25.58;49.55;96585.28;5069067;28;20118;-71
2021/08/09 10:34:07;;;;;;;2.25;1.10;;;;;;;25.60;43.71;96582.88;5067697;28;19924;-71
2021/08/09 10:37:07;;;;;;;3.90;1.17;;;;;;;25.60;47.59;96574.50;5070479;28;20045;-71
2021/08/09 10:39:51;;;;;;;1.95;0.90;;;;;;;25.71;40.63;96577.19;5049388;28;20082;-71
2021/08/09 10:42:36;;;;;;;3.38;1.00;;;;;;;25.68;41.94;96584.38;5048875;28;20685;-73
2021/08/09 10:45:07;;;;;;;5.40;1.05;;;;;;;25.57;47.03;96582.88;5049861;28;20415;-73
2021/08/09 10:47:58;;;;;;;2.15;1.02;;;;;;;25.51;43.35;96574.16;5049512;28;20534;-73
2021/08/09 10:50:51;;;;;;;3.40;1.15;;;;;;;25.60;41.05;96571.72;5049734;28;20063;-72
2021/08/09 10:53:41;;;;;;;3.10;1.17;;;;;;;25.65;43.86;96576.06;5049331;28;20049;-73
2021/08/09 10:56:07;;;;;;;4.32;1.10;;;;;;;25.38;42.41;96573.09;5048846;28;20041;-72
2021/08/09 10:58:53;;;;;;;3.92;1.20;;;;;;;25.41;44.49;96561.91;5060364;28;20051;-72
2021/08/09 11:01:23;;;;;;;3.00;1.00;;;;;;;25.55;41.56;96563.78;5068723;28;20048;-72
2021/08/09 11:04:17;;;;;;;2.00;0.77;;;;;;;25.53;40.52;96549.47;5069813;28;20127;-72
2021/08/09 11:06:55;;;;;;;2.90;1.25;;;;;;;25.57;42.25;96560.56;5069580;28;20072;-72
2021/08/09 11:09:54;;;;;;;2.75;1.00;;;;;;;25.67;44.96;96554.91;5052989;28;20083;-72
2021/08/09 11:12:23;;;;;;;2.50;1.10;;;;;;;25.69;42.84;96562.88;5053254;28;20049;-73
2021/08/09 11:15:19;;;;;;;2.85;0.93;;;;;;;25.64;43.07;96558.53;5053546;28;20443;-72
2021/08/09 11:17:51;;;;;;;2.78;1.13;;;;;;;25.51;41.65;96563.81;5053411;28;20041;-72
2021/08/09 11:20:20;;;;;;;2.75;1.10;;;;;;;25.49;43.26;96565.44;5049071;28;20049;-72
2021/08/09 11:22:49;;;;;;;3.25;1.15;;;;;;;25.58;43.76;96551.81;5068468;28;20140;-72
2021/08/09 11:25:31;;;;;;;2.35;1.00;;;;;;;25.64;43.03;96550.16;5071269;28;20513;-72
2021/08/09 11:28:00;;;;;;;3.00;1.10;;;;;;;25.60;43.04;96554.97;5072970;28;20127;-72
2021/08/09 11:30:44;;;;;;;2.70;1.05;;;;;;;25.61;44.79;96561.34;5072810;28;20069;-72
2021/08/09 11:33:37;;;;;;;2.33;0.90;;;;;;;25.55;45.41;96555.41;5072487;28;20076;-73
2021/08/09 11:36:06;;;;;;;2.08;1.10;;;;;;;25.49;44.06;96559.84;5071968;28;20048;-73
2021/08/09 11:38:43;;;;;;;4.90;1.08;;;;;;;25.13;41.43;96560.13;5073186;28;20063;-72
2021/08/09 11:41:11;;;;;;;3.67;1.17;;;;;;;24.98;46.71;96556.59;5070571;28;20093;-72
2021/08/09 11:43:39;;;;;;;2.33;0.98;;;;;;;24.85;45.53;96547.16;5068702;28;20044;-72